Time,TemperatureF,DewpointF,PressureIn,WindDirection,WindDirectionDegrees,WindSpeedMPH,WindSpeedGustMPH,Humidity,HourlyPrecipIn,Conditions,Clouds,dailyrainin,SoftwareType,DateUTC
2013-01-28 00:04:00,43.1,32.5,29.95,SSE,147,0.0,0.0,66,0.00,,,0.00,Wunderground v.1.15,2013-01-28 07:04:00,
2013-01-28 00:09:00,43.0,32.4,29.95,SE,140,0.0,0.0,66,0.00,,,0.00,Wunderground v.1.15,2013-01-28 07:09:00,
2013-01-28 00:14:00,42.7,32.5,29.95,SE,142,0.0,0.0,67,0.00,,,0.00,Wunderground v.1.15,2013-01-28 07:14:00,
2013-01-28 00:19:00,42.6,32.4,29.95,SE,142,0.0,0.0,67,0.00,,,0.00,Wunderground v.1.15,2013-01-28 07:19:00,
2013-01-28 00:24:00,42.3,32.1,29.95,SSE,147,0.0,3.0,67,0.00,,,0.00,Wunderground v.1.15,2013-01-28 07:24:00,
2013-01-28 00:30:00,42.4,32.2,29.95,SSE,162,1.0,2.0,67,0.00,,,0.00,Wunderground v.1.15,2013-01-28 07:30:00,
2013-01-28 00:35:00,42.5,32.3,29.95,SSW,207,1.0,2.0,67,0.00,,,0.00,Wunderground v.1.15,2013-01-28 07:35:00,
2013-01-28 00:40:00,42.5,32.3,29.95,SSW,204,0.0,0.0,67,0.00,,,0.00,Wunderground v.1.15,2013-01-28 07:40:00,
2013-01-28 00:45:00,42.5,32.3,29.95,SSW,200,1.0,1.0,67,0.00,,,0.00,Wunderground v.1.15,2013-01-28 07:45:00,
2013-01-28 00:50:00,42.3,32.1,29.95,SSW,200,0.0,0.0,67,0.00,,,0.00,Wunderground v.1.15,2013-01-28 07:50:00,
2013-01-28 00:55:00,42.1,31.9,29.95,SSW,200,0.0,0.0,67,0.00,,,0.00,Wunderground v.1.15,2013-01-28 07:55:00,
2013-01-28 00:59:00,41.7,31.5,29.95,SSW,200,0.0,0.0,67,0.00,,,0.00,Wunderground v.1.15,2013-01-28 07:59:00,
2013-01-28 01:04:00,41.4,31.6,29.94,SSW,199,0.0,0.0,68,0.00,,,0.00,Wunderground v.1.15,2013-01-28 08:04:00,
2013-01-28 01:09:00,41.1,31.3,29.94,SSW,199,0.0,0.0,68,0.00,,,0.00,Wunderground v.1.15,2013-01-28 08:09:00,
2013-01-28 01:14:00,41.0,31.6,29.94,SSW,199,0.0,0.0,69,0.00,,,0.00,Wunderground v.1.15,2013-01-28 08:14:00,
2013-01-28 01:19:00,40.9,31.5,29.93,SSW,198,0.0,0.0,69,0.00,,,0.00,Wunderground v.1.15,2013-01-28 08:19:00,
2013-01-28 01:24:00,40.9,31.5,29.93,SSW,198,0.0,0.0,69,0.00,,,0.00,Wunderground v.1.15,2013-01-28 08:24:00,
2013-01-28 01:29:00,40.9,31.5,29.93,SSW,198,0.0,0.0,69,0.00,,,0.00,Wunderground v.1.15,2013-01-28 08:29:00,
2013-01-28 01:35:00,40.9,31.5,29.93,SSW,198,0.0,0.0,69,0.00,,,0.00,Wunderground v.1.15,2013-01-28 08:35:00,
2013-01-28 01:40:00,41.1,31.7,29.93,South,171,0.0,0.0,69,0.00,,,0.00,Wunderground v.1.15,2013-01-28 08:40:00,
2013-01-28 01:45:00,41.1,31.3,29.93,South,171,0.0,0.0,68,0.00,,,0.00,Wunderground v.1.15,2013-01-28 08:45:00,
2013-01-28 01:50:00,41.2,31.4,29.93,South,171,0.0,1.0,68,0.00,,,0.00,Wunderground v.1.15,2013-01-28 08:50:00,
2013-01-28 01:55:00,41.1,31.3,29.93,South,171,0.0,1.0,68,0.00,,,0.00,Wunderground v.1.15,2013-01-28 08:55:00,
2013-01-28 02:00:00,41.1,31.3,29.92,South,171,0.0,0.0,68,0.00,,,0.00,Wunderground v.1.15,2013-01-28 09:00:00,
2013-01-28 02:05:00,41.1,31.3,29.92,South,171,0.0,0.0,68,0.00,,,0.00,Wunderground v.1.15,2013-01-28 09:05:00,
2013-01-28 02:10:00,40.8,31.1,29.93,South,171,0.0,0.0,68,0.00,,,0.00,Wunderground v.1.15,2013-01-28 09:10:00,
2013-01-28 02:14:00,40.4,31.0,29.93,South,171,0.0,0.0,69,0.00,,,0.00,Wunderground v.1.15,2013-01-28 09:14:00,
2013-01-28 02:19:00,40.0,30.6,29.93,South,171,0.0,0.0,69,0.00,,,0.00,Wunderground v.1.15,2013-01-28 09:19:00,
2013-01-28 02:24:00,39.6,30.6,29.92,South,171,0.0,0.0,70,0.00,,,0.00,Wunderground v.1.15,2013-01-28 09:24:00,
2013-01-28 02:29:00,39.4,30.8,29.92,South,171,0.0,0.0,71,0.00,,,0.00,Wunderground v.1.15,2013-01-28 09:29:00,
2013-01-28 02:40:00,39.1,30.8,29.92,South,169,0.0,0.0,72,0.00,,,0.00,Wunderground v.1.15,2013-01-28 09:40:00,
2013-01-28 02:44:00,39.6,31.0,29.93,South,169,0.0,0.0,71,0.00,,,0.00,Wunderground v.1.15,2013-01-28 09:44:00,
2013-01-28 02:49:00,40.0,31.0,29.92,South,169,0.0,0.0,70,0.00,,,0.00,Wunderground v.1.15,2013-01-28 09:49:00,
2013-01-28 02:55:00,40.4,31.0,29.92,South,169,0.0,1.0,69,0.00,,,0.00,Wunderground v.1.15,2013-01-28 09:55:00,
2013-01-28 03:00:00,40.6,31.2,29.92,South,169,0.0,0.0,69,0.00,,,0.00,Wunderground v.1.15,2013-01-28 10:00:00,
2013-01-28 03:05:00,40.6,31.2,29.92,South,169,0.0,0.0,69,0.00,,,0.00,Wunderground v.1.15,2013-01-28 10:05:00,
2013-01-28 03:10:00,40.6,31.2,29.92,South,169,0.0,0.0,69,0.00,,,0.00,Wunderground v.1.15,2013-01-28 10:10:00,
2013-01-28 03:15:00,40.7,31.7,29.92,South,169,0.0,0.0,70,0.00,,,0.00,Wunderground v.1.15,2013-01-28 10:15:00,
2013-01-28 03:20:00,40.9,31.9,29.92,South,169,0.0,0.0,70,0.00,,,0.00,Wunderground v.1.15,2013-01-28 10:20:00,
2013-01-28 03:25:00,41.0,32.0,29.92,South,169,0.0,2.0,70,0.00,,,0.00,Wunderground v.1.15,2013-01-28 10:25:00,
2013-01-28 03:30:00,41.3,32.2,29.92,South,169,0.0,0.0,70,0.00,,,0.00,Wunderground v.1.15,2013-01-28 10:30:00,
2013-01-28 03:35:00,41.6,32.5,29.92,South,169,0.0,1.0,70,0.00,,,0.00,Wunderground v.1.15,2013-01-28 10:35:00,
2013-01-28 03:45:00,41.9,32.8,29.92,South,169,0.0,0.0,70,0.00,,,0.00,Wunderground v.1.15,2013-01-28 10:45:00,
2013-01-28 03:50:00,41.8,32.7,29.92,South,169,0.0,1.0,70,0.00,,,0.00,Wunderground v.1.15,2013-01-28 10:50:00,
2013-01-28 03:54:00,41.5,32.4,29.92,South,169,0.0,1.0,70,0.00,,,0.00,Wunderground v.1.15,2013-01-28 10:54:00,
2013-01-28 03:59:00,41.3,32.6,29.92,South,169,0.0,0.0,71,0.00,,,0.00,Wunderground v.1.15,2013-01-28 10:59:00,
2013-01-28 04:04:00,41.1,32.4,29.92,South,169,0.0,0.0,71,0.00,,,0.00,Wunderground v.1.15,2013-01-28 11:04:00,
2013-01-28 04:15:00,40.4,32.1,29.91,South,169,0.0,0.0,72,0.00,,,0.00,Wunderground v.1.15,2013-01-28 11:15:00,
2013-01-28 04:20:00,40.1,32.1,29.91,South,169,0.0,0.0,73,0.00,,,0.00,Wunderground v.1.15,2013-01-28 11:20:00,
2013-01-28 04:25:00,39.7,32.1,29.91,South,169,0.0,0.0,74,0.00,,,0.00,Wunderground v.1.15,2013-01-28 11:25:00,
2013-01-28 04:30:00,39.7,32.4,29.91,South,169,0.0,0.0,75,0.00,,,0.00,Wunderground v.1.15,2013-01-28 11:30:00,
2013-01-28 04:35:00,39.8,32.8,29.90,South,169,0.0,1.0,76,0.00,,,0.00,Wunderground v.1.15,2013-01-28 11:35:00,
2013-01-28 04:40:00,40.0,33.0,29.90,South,169,0.0,0.0,76,0.00,,,0.00,Wunderground v.1.15,2013-01-28 11:40:00,
2013-01-28 04:45:00,40.2,33.2,29.90,South,169,0.0,0.0,76,0.00,,,0.00,Wunderground v.1.15,2013-01-28 11:45:00,
2013-01-28 04:50:00,40.6,33.6,29.90,SSE,150,0.0,0.0,76,0.00,,,0.00,Wunderground v.1.15,2013-01-28 11:50:00,
2013-01-28 04:55:00,41.0,33.7,29.90,SSE,150,0.0,2.0,75,0.00,,,0.00,Wunderground v.1.15,2013-01-28 11:55:00,
2013-01-28 04:59:00,41.3,34.0,29.89,SE,141,1.0,1.0,75,0.00,,,0.00,Wunderground v.1.15,2013-01-28 11:59:00,
2013-01-28 05:04:00,41.3,33.6,29.89,SE,142,0.0,1.0,74,0.00,,,0.00,Wunderground v.1.15,2013-01-28 12:04:00,
2013-01-28 05:09:00,41.2,33.5,29.90,SE,142,0.0,1.0,74,0.00,,,0.00,Wunderground v.1.15,2013-01-28 12:09:00,
2013-01-28 05:19:00,41.1,33.8,29.90,South,191,0.0,0.0,75,0.00,,,0.00,Wunderground v.1.15,2013-01-28 12:19:00,
2013-01-28 05:25:00,41.0,33.7,29.90,South,191,0.0,1.0,75,0.00,,,0.00,Wunderground v.1.15,2013-01-28 12:25:00,
2013-01-28 05:30:00,40.9,33.6,29.89,South,191,0.0,0.0,75,0.00,,,0.00,Wunderground v.1.15,2013-01-28 12:30:00,
2013-01-28 05:35:00,40.6,33.3,29.89,South,191,0.0,0.0,75,0.00,,,0.00,Wunderground v.1.15,2013-01-28 12:35:00,
2013-01-28 05:40:00,40.3,33.3,29.89,South,191,0.0,0.0,76,0.00,,,0.00,Wunderground v.1.15,2013-01-28 12:40:00,
2013-01-28 05:45:00,40.0,33.0,29.89,South,191,0.0,0.0,76,0.00,,,0.00,Wunderground v.1.15,2013-01-28 12:45:00,
2013-01-28 05:50:00,39.9,33.3,29.89,South,191,0.0,0.0,77,0.00,,,0.00,Wunderground v.1.15,2013-01-28 12:50:00,
2013-01-28 05:55:00,39.7,33.1,29.89,South,191,0.0,0.0,77,0.00,,,0.00,Wunderground v.1.15,2013-01-28 12:55:00,
2013-01-28 06:00:00,39.5,32.9,29.89,South,191,0.0,0.0,77,0.00,,,0.00,Wunderground v.1.15,2013-01-28 13:00:00,
2013-01-28 06:05:00,39.7,33.4,29.89,South,191,0.0,0.0,78,0.00,,,0.00,Wunderground v.1.15,2013-01-28 13:05:00,
2013-01-28 06:10:00,39.6,33.3,29.89,South,191,0.0,0.0,78,0.00,,,0.00,Wunderground v.1.15,2013-01-28 13:10:00,
2013-01-28 06:15:00,39.7,33.4,29.89,South,182,0.0,0.0,78,0.00,,,0.00,Wunderground v.1.15,2013-01-28 13:15:00,
2013-01-28 06:19:00,39.8,33.5,29.89,South,178,1.0,1.0,78,0.00,,,0.00,Wunderground v.1.15,2013-01-28 13:19:00,
2013-01-28 06:24:00,40.0,33.4,29.89,SSE,168,0.0,1.0,77,0.00,,,0.00,Wunderground v.1.15,2013-01-28 13:24:00,
2013-01-28 06:29:00,40.0,33.4,29.89,SSE,168,0.0,2.0,77,0.00,,,0.00,Wunderground v.1.15,2013-01-28 13:29:00,
2013-01-28 06:34:00,40.1,33.5,29.90,South,169,0.0,2.0,77,0.00,,,0.00,Wunderground v.1.15,2013-01-28 13:34:00,
2013-01-28 06:39:00,40.3,33.7,29.89,SSE,161,1.0,1.0,77,0.00,,,0.00,Wunderground v.1.15,2013-01-28 13:39:00,
2013-01-28 06:44:00,40.6,33.6,29.89,South,175,2.0,3.0,76,0.00,,,0.00,Wunderground v.1.15,2013-01-28 13:44:00,
2013-01-28 06:49:00,41.0,33.7,29.89,South,178,2.0,2.0,75,0.00,,,0.00,Wunderground v.1.15,2013-01-28 13:49:00,
2013-01-28 06:55:00,41.2,33.5,29.88,SSW,209,2.0,7.0,74,0.00,,,0.00,Wunderground v.1.15,2013-01-28 13:55:00,
2013-01-28 07:00:00,41.3,33.6,29.89,South,177,2.0,3.0,74,0.00,,,0.00,Wunderground v.1.15,2013-01-28 14:00:00,
2013-01-28 07:05:00,41.3,33.6,29.89,SSE,148,2.0,3.0,74,0.00,,,0.00,Wunderground v.1.15,2013-01-28 14:05:00,
2013-01-28 07:10:00,41.3,33.6,29.88,SSE,153,2.0,3.0,74,0.00,,,0.00,Wunderground v.1.15,2013-01-28 14:10:00,
2013-01-28 07:15:00,41.4,33.7,29.89,South,179,2.0,5.0,74,0.00,,,0.00,Wunderground v.1.15,2013-01-28 14:15:00,
2013-01-28 07:20:00,41.5,33.5,29.89,SSE,167,3.0,3.0,73,0.00,,,0.00,Wunderground v.1.15,2013-01-28 14:20:00,
2013-01-28 07:25:00,41.8,33.8,29.89,South,175,3.0,3.0,73,0.00,,,0.00,Wunderground v.1.15,2013-01-28 14:25:00,
2013-01-28 07:30:00,42.0,33.6,29.89,South,175,4.0,4.0,72,0.00,,,0.00,Wunderground v.1.15,2013-01-28 14:30:00,
2013-01-28 07:35:00,42.3,33.9,29.89,South,188,4.0,6.0,72,0.00,,,0.00,Wunderground v.1.15,2013-01-28 14:35:00,
2013-01-28 07:40:00,42.4,33.7,29.89,SSE,159,4.0,4.0,71,0.00,,,0.00,Wunderground v.1.15,2013-01-28 14:40:00,
2013-01-28 07:45:00,42.5,33.8,29.89,SSW,193,3.0,4.0,71,0.00,,,0.00,Wunderground v.1.15,2013-01-28 14:45:00,
2013-01-28 07:50:00,42.5,33.8,29.89,SSE,153,3.0,3.0,71,0.00,,,0.00,Wunderground v.1.15,2013-01-28 14:50:00,
2013-01-28 07:54:00,42.6,34.2,29.89,SSE,157,4.0,4.0,72,0.00,,,0.00,Wunderground v.1.15,2013-01-28 14:54:00,
2013-01-28 07:59:00,42.8,34.0,29.88,South,186,4.0,7.0,71,0.00,,,0.00,Wunderground v.1.15,2013-01-28 14:59:00,
2013-01-28 08:05:00,43.2,34.4,29.88,SE,146,4.0,7.0,71,0.00,,,0.00,Wunderground v.1.15,2013-01-28 15:05:00,
2013-01-28 08:09:00,43.5,34.4,29.88,SE,146,5.0,5.0,70,0.00,,,0.00,Wunderground v.1.15,2013-01-28 15:09:00,
2013-01-28 08:14:00,43.8,34.3,29.89,South,176,5.0,7.0,69,0.00,,,0.00,Wunderground v.1.15,2013-01-28 15:14:00,
2013-01-28 08:19:00,44.0,34.5,29.88,SW,236,5.0,5.0,69,0.00,,,0.00,Wunderground v.1.15,2013-01-28 15:19:00,
2013-01-28 08:24:00,44.2,34.7,29.89,SSE,151,5.0,5.0,69,0.00,,,0.00,Wunderground v.1.15,2013-01-28 15:24:00,
2013-01-28 08:29:00,44.8,34.9,29.89,SSW,196,5.0,6.0,68,0.00,,,0.00,Wunderground v.1.15,2013-01-28 15:29:00,
2013-01-28 08:34:00,45.5,35.2,29.88,South,190,5.0,6.0,67,0.00,,,0.00,Wunderground v.1.15,2013-01-28 15:34:00,
2013-01-28 08:39:00,45.7,35.0,29.88,SSW,199,4.0,9.0,66,0.00,,,0.00,Wunderground v.1.15,2013-01-28 15:39:00,
2013-01-28 08:44:00,45.5,34.8,29.88,SW,232,5.0,9.0,66,0.00,,,0.00,Wunderground v.1.15,2013-01-28 15:44:00,
2013-01-28 08:49:00,45.5,34.8,29.88,SSE,158,6.0,6.0,66,0.00,,,0.00,Wunderground v.1.15,2013-01-28 15:49:00,
2013-01-28 08:55:00,46.1,35.0,29.88,South,187,6.0,6.0,65,0.00,,,0.00,Wunderground v.1.15,2013-01-28 15:55:00,
2013-01-28 09:00:00,46.6,35.1,29.88,SSW,207,6.0,6.0,64,0.00,,,0.00,Wunderground v.1.15,2013-01-28 16:00:00,
2013-01-28 09:05:00,47.0,35.4,29.87,SE,126,5.0,6.0,64,0.00,,,0.00,Wunderground v.1.15,2013-01-28 16:05:00,
2013-01-28 09:10:00,47.1,35.1,29.87,SW,236,5.0,5.0,63,0.00,,,0.00,Wunderground v.1.15,2013-01-28 16:10:00,
2013-01-28 09:15:00,46.6,35.1,29.87,SSW,198,6.0,12.0,64,0.00,,,0.00,Wunderground v.1.15,2013-01-28 16:15:00,
2013-01-28 09:20:00,46.4,34.9,29.87,South,188,7.0,7.0,64,0.00,,,0.00,Wunderground v.1.15,2013-01-28 16:20:00,
2013-01-28 09:25:00,46.5,35.4,29.87,SSE,161,7.0,9.0,65,0.00,,,0.00,Wunderground v.1.15,2013-01-28 16:25:00,
2013-01-28 09:30:00,47.0,35.4,29.87,WSW,240,8.0,15.0,64,0.00,,,0.00,Wunderground v.1.15,2013-01-28 16:30:00,
2013-01-28 09:35:00,47.8,35.8,29.87,SSW,200,9.0,15.0,63,0.00,,,0.00,Wunderground v.1.15,2013-01-28 16:35:00,
2013-01-28 09:40:00,48.3,35.9,29.87,SW,229,7.0,7.0,62,0.00,,,0.00,Wunderground v.1.15,2013-01-28 16:40:00,
2013-01-28 09:45:00,48.7,35.8,29.87,SSW,194,6.0,7.0,61,0.00,,,0.00,Wunderground v.1.15,2013-01-28 16:45:00,
2013-01-28 09:50:00,48.9,35.6,29.87,South,186,7.0,7.0,60,0.00,,,0.00,Wunderground v.1.15,2013-01-28 16:50:00,
2013-01-28 09:54:00,48.6,35.7,29.87,SW,225,7.0,16.0,61,0.00,,,0.00,Wunderground v.1.15,2013-01-28 16:54:00,
2013-01-28 10:04:00,49.4,36.1,29.87,SSW,212,7.0,7.0,60,0.00,,,0.00,Wunderground v.1.15,2013-01-28 17:04:00,
2013-01-28 10:09:00,49.5,36.2,29.87,SSW,201,5.0,11.0,60,0.00,,,0.00,Wunderground v.1.15,2013-01-28 17:09:00,
2013-01-28 10:15:00,49.2,35.9,29.87,SSW,201,6.0,11.0,60,0.00,,,0.00,Wunderground v.1.15,2013-01-28 17:15:00,
2013-01-28 10:20:00,49.1,35.8,29.87,SSW,196,6.0,6.0,60,0.00,,,0.00,Wunderground v.1.15,2013-01-28 17:20:00,
2013-01-28 10:25:00,49.1,35.8,29.86,SSW,201,5.0,9.0,60,0.00,,,0.00,Wunderground v.1.15,2013-01-28 17:25:00,
2013-01-28 10:30:00,49.2,35.9,29.86,SSE,147,4.0,4.0,60,0.00,,,0.00,Wunderground v.1.15,2013-01-28 17:30:00,
2013-01-28 10:35:00,49.5,35.8,29.86,SW,215,4.0,5.0,59,0.00,,,0.00,Wunderground v.1.15,2013-01-28 17:35:00,
2013-01-28 10:40:00,49.7,35.9,29.86,SW,215,4.0,6.0,59,0.00,,,0.00,Wunderground v.1.15,2013-01-28 17:40:00,
2013-01-28 10:45:00,49.7,35.5,29.86,SW,225,5.0,6.0,58,0.00,,,0.00,Wunderground v.1.15,2013-01-28 17:45:00,
2013-01-28 10:50:00,49.8,35.6,29.86,South,184,5.0,5.0,58,0.00,,,0.00,Wunderground v.1.15,2013-01-28 17:50:00,
2013-01-28 10:55:00,49.8,35.6,29.86,SSW,199,4.0,5.0,58,0.00,,,0.00,Wunderground v.1.15,2013-01-28 17:55:00,
2013-01-28 11:00:00,49.7,35.5,29.85,SSW,204,4.0,10.0,58,0.00,,,0.00,Wunderground v.1.15,2013-01-28 18:00:00,
2013-01-28 11:05:00,49.5,35.3,29.85,South,186,4.0,10.0,58,0.00,,,0.00,Wunderground v.1.15,2013-01-28 18:05:00,
2013-01-28 11:10:00,49.4,35.2,29.85,South,177,4.0,4.0,58,0.00,,,0.00,Wunderground v.1.15,2013-01-28 18:10:00,
2013-01-28 11:15:00,49.3,35.1,29.84,SSW,202,3.0,4.0,58,0.00,,,0.00,Wunderground v.1.15,2013-01-28 18:15:00,
2013-01-28 11:20:00,49.4,35.2,29.84,South,179,2.0,2.0,58,0.00,,,0.00,Wunderground v.1.15,2013-01-28 18:20:00,
2013-01-28 11:25:00,49.6,34.5,29.84,SSW,198,2.0,2.0,56,0.00,,,0.00,Wunderground v.1.15,2013-01-28 18:25:00,
2013-01-28 11:30:00,49.7,34.2,29.84,South,180,2.0,3.0,55,0.00,,,0.00,Wunderground v.1.15,2013-01-28 18:30:00,
2013-01-28 11:34:00,49.8,34.3,29.84,SSW,200,3.0,3.0,55,0.00,,,0.00,Wunderground v.1.15,2013-01-28 18:34:00,
2013-01-28 11:39:00,50.0,34.0,29.83,SSW,200,4.0,4.0,54,0.00,,,0.00,Wunderground v.1.15,2013-01-28 18:39:00,
2013-01-28 11:49:00,50.1,34.1,29.83,SW,219,4.0,4.0,54,0.00,,,0.00,Wunderground v.1.15,2013-01-28 18:49:00,
2013-01-28 11:54:00,50.1,33.6,29.83,SSW,196,4.0,5.0,53,0.00,,,0.00,Wunderground v.1.15,2013-01-28 18:54:00,
2013-01-28 11:59:00,50.1,33.6,29.82,SSW,211,5.0,5.0,53,0.00,,,0.00,Wunderground v.1.15,2013-01-28 18:59:00,
2013-01-28 12:05:00,50.1,33.6,29.82,SW,215,6.0,12.0,53,0.00,,,0.00,Wunderground v.1.15,2013-01-28 19:05:00,
2013-01-28 12:10:00,50.3,33.8,29.81,South,178,6.0,6.0,53,0.00,,,0.00,Wunderground v.1.15,2013-01-28 19:10:00,
2013-01-28 12:15:00,50.5,33.5,29.81,SSW,202,5.0,7.0,52,0.00,,,0.00,Wunderground v.1.15,2013-01-28 19:15:00,
2013-01-28 12:20:00,50.7,33.7,29.81,SSW,204,6.0,6.0,52,0.00,,,0.00,Wunderground v.1.15,2013-01-28 19:20:00,
2013-01-28 12:25:00,50.8,33.8,29.80,SSW,208,7.0,7.0,52,0.00,,,0.00,Wunderground v.1.15,2013-01-28 19:25:00,
2013-01-28 12:30:00,50.8,33.8,29.80,ESE,114,6.0,6.0,52,0.00,,,0.00,Wunderground v.1.15,2013-01-28 19:30:00,
2013-01-28 12:39:00,50.9,32.9,29.80,South,187,5.0,5.0,50,0.00,,,0.00,Wunderground v.1.15,2013-01-28 19:39:00,
2013-01-28 12:44:00,50.9,32.9,29.80,WSW,249,8.0,8.0,50,0.00,,,0.00,Wunderground v.1.15,2013-01-28 19:44:00,
2013-01-28 12:49:00,51.0,33.0,29.80,WSW,258,8.0,8.0,50,0.00,,,0.00,Wunderground v.1.15,2013-01-28 19:49:00,
2013-01-28 12:54:00,51.3,33.3,29.79,SSW,194,7.0,13.0,50,0.00,,,0.00,Wunderground v.1.15,2013-01-28 19:54:00,
2013-01-28 12:59:00,51.5,33.0,29.79,SSW,196,7.0,9.0,49,0.00,,,0.00,Wunderground v.1.15,2013-01-28 19:59:00,
2013-01-28 13:04:00,51.9,33.3,29.79,South,184,6.0,9.0,49,0.00,,,0.00,Wunderground v.1.15,2013-01-28 20:04:00,
2013-01-28 13:10:00,52.2,33.1,29.79,South,178,5.0,10.0,48,0.00,,,0.00,Wunderground v.1.15,2013-01-28 20:10:00,
2013-01-28 13:15:00,52.3,32.6,29.79,SSW,211,5.0,11.0,47,0.00,,,0.00,Wunderground v.1.15,2013-01-28 20:15:00,
2013-01-28 13:20:00,52.3,32.6,29.78,South,186,7.0,7.0,47,0.00,,,0.00,Wunderground v.1.15,2013-01-28 20:20:00,
2013-01-28 13:25:00,52.5,32.8,29.78,SW,236,6.0,7.0,47,0.00,,,0.00,Wunderground v.1.15,2013-01-28 20:25:00,
2013-01-28 13:30:00,52.8,32.6,29.78,SSW,211,5.0,14.0,46,0.00,,,0.00,Wunderground v.1.15,2013-01-28 20:30:00,
2013-01-28 13:35:00,53.4,33.1,29.77,SW,227,5.0,14.0,46,0.00,,,0.00,Wunderground v.1.15,2013-01-28 20:35:00,
2013-01-28 13:40:00,54.1,33.2,29.77,SSW,211,5.0,5.0,45,0.00,,,0.00,Wunderground v.1.15,2013-01-28 20:40:00,
2013-01-28 13:45:00,54.3,32.8,29.77,South,179,4.0,5.0,44,0.00,,,0.00,Wunderground v.1.15,2013-01-28 20:45:00,
2013-01-28 13:50:00,54.3,32.8,29.76,South,181,3.0,3.0,44,0.00,,,0.00,Wunderground v.1.15,2013-01-28 20:50:00,
2013-01-28 13:55:00,54.2,31.6,29.76,SSW,209,5.0,8.0,42,0.00,,,0.00,Wunderground v.1.15,2013-01-28 20:55:00,
2013-01-28 14:00:00,55.4,32.1,29.76,South,176,7.0,7.0,41,0.00,,,0.00,Wunderground v.1.15,2013-01-28 21:00:00,
2013-01-28 14:05:00,55.9,30.6,29.76,WSW,246,8.0,10.0,38,0.00,,,0.00,Wunderground v.1.15,2013-01-28 21:05:00,
2013-01-28 14:10:00,56.0,30.7,29.75,South,190,7.0,7.0,38,0.00,,,0.00,Wunderground v.1.15,2013-01-28 21:10:00,
2013-01-28 14:15:00,55.8,31.2,29.75,SSW,210,7.0,11.0,39,0.00,,,0.00,Wunderground v.1.15,2013-01-28 21:15:00,
2013-01-28 14:20:00,54.9,30.4,29.75,SW,234,7.0,13.0,39,0.00,,,0.00,Wunderground v.1.15,2013-01-28 21:20:00,
2013-01-28 14:25:00,54.6,29.5,29.75,SSW,200,7.0,13.0,38,0.00,,,0.00,Wunderground v.1.15,2013-01-28 21:25:00,
2013-01-28 14:30:00,54.7,28.9,29.75,SW,219,6.0,7.0,37,0.00,,,0.00,Wunderground v.1.15,2013-01-28 21:30:00,
2013-01-28 14:35:00,55.0,28.5,29.75,SW,221,5.0,10.0,36,0.00,,,0.00,Wunderground v.1.15,2013-01-28 21:35:00,
2013-01-28 14:40:00,55.2,27.3,29.75,SW,217,6.0,6.0,34,0.00,,,0.00,Wunderground v.1.15,2013-01-28 21:40:00,
2013-01-28 14:45:00,55.2,27.3,29.75,SSW,213,7.0,7.0,34,0.00,,,0.00,Wunderground v.1.15,2013-01-28 21:45:00,
2013-01-28 14:50:00,55.0,26.4,29.75,SSW,200,9.0,12.0,33,0.00,,,0.00,Wunderground v.1.15,2013-01-28 21:50:00,
2013-01-28 14:55:00,54.9,26.3,29.75,SW,220,9.0,12.0,33,0.00,,,0.00,Wunderground v.1.15,2013-01-28 21:55:00,
2013-01-28 15:00:00,54.8,26.2,29.75,SW,229,7.0,7.0,33,0.00,,,0.00,Wunderground v.1.15,2013-01-28 22:00:00,
2013-01-28 15:05:00,54.7,26.8,29.75,WSW,238,6.0,10.0,34,0.00,,,0.00,Wunderground v.1.15,2013-01-28 22:05:00,
2013-01-28 15:10:00,54.5,26.7,29.75,SW,234,7.0,9.0,34,0.00,,,0.00,Wunderground v.1.15,2013-01-28 22:10:00,
2013-01-28 15:15:00,54.2,27.1,29.75,SSW,204,5.0,9.0,35,0.00,,,0.00,Wunderground v.1.15,2013-01-28 22:15:00,
2013-01-28 15:20:00,54.1,26.3,29.75,South,184,4.0,4.0,34,0.00,,,0.00,Wunderground v.1.15,2013-01-28 22:20:00,
2013-01-28 15:25:00,54.2,26.4,29.75,SW,227,4.0,5.0,34,0.00,,,0.00,Wunderground v.1.15,2013-01-28 22:25:00,
2013-01-28 15:30:00,54.2,26.4,29.75,SW,217,4.0,4.0,34,0.00,,,0.00,Wunderground v.1.15,2013-01-28 22:30:00,
2013-01-28 15:35:00,54.1,27.0,29.75,WSW,252,4.0,4.0,35,0.00,,,0.00,Wunderground v.1.15,2013-01-28 22:35:00,
2013-01-28 15:40:00,53.8,28.1,29.75,West,277,4.0,5.0,37,0.00,,,0.00,Wunderground v.1.15,2013-01-28 22:40:00,
2013-01-28 15:45:00,53.6,27.9,29.75,West,265,3.0,5.0,37,0.00,,,0.00,Wunderground v.1.15,2013-01-28 22:45:00,
2013-01-28 15:50:00,53.0,29.9,29.75,WSW,246,4.0,4.0,41,0.00,,,0.00,Wunderground v.1.15,2013-01-28 22:50:00,
2013-01-28 15:55:00,52.1,30.3,29.75,SSW,205,4.0,6.0,43,0.00,,,0.01,Wunderground v.1.15,2013-01-28 22:55:00,
2013-01-28 16:00:00,51.3,31.7,29.75,SW,223,3.0,3.0,47,0.00,,,0.01,Wunderground v.1.15,2013-01-28 23:00:00,
2013-01-28 16:05:00,51.1,31.0,29.75,West,269,3.0,6.0,46,0.00,,,0.01,Wunderground v.1.15,2013-01-28 23:05:00,
2013-01-28 16:10:00,51.4,30.2,29.75,West,270,4.0,4.0,44,0.00,,,0.01,Wunderground v.1.15,2013-01-28 23:10:00,
2013-01-28 16:15:00,51.6,30.4,29.75,WSW,242,4.0,4.0,44,0.00,,,0.01,Wunderground v.1.15,2013-01-28 23:15:00,
2013-01-28 16:20:00,51.8,30.0,29.75,SSW,208,4.0,9.0,43,0.00,,,0.01,Wunderground v.1.15,2013-01-28 23:20:00,
2013-01-28 16:25:00,52.0,30.2,29.75,SW,233,5.0,9.0,43,0.00,,,0.01,Wunderground v.1.15,2013-01-28 23:25:00,
2013-01-28 16:30:00,52.1,29.7,29.75,SSW,210,5.0,5.0,42,0.00,,,0.01,Wunderground v.1.15,2013-01-28 23:30:00,
2013-01-28 16:35:00,52.4,30.0,29.76,West,279,5.0,5.0,42,0.00,,,0.01,Wunderground v.1.15,2013-01-28 23:35:00,
2013-01-28 16:40:00,52.4,28.8,29.76,South,169,5.0,7.0,40,0.00,,,0.01,Wunderground v.1.15,2013-01-28 23:40:00,
2013-01-28 16:45:00,52.7,29.0,29.76,West,273,6.0,12.0,40,0.00,,,0.01,Wunderground v.1.15,2013-01-28 23:45:00,
2013-01-28 16:50:00,52.8,28.5,29.77,SW,230,7.0,7.0,39,0.00,,,0.01,Wunderground v.1.15,2013-01-28 23:50:00,
2013-01-28 16:55:00,52.6,28.3,29.77,WNW,288,7.0,7.0,39,0.00,,,0.01,Wunderground v.1.15,2013-01-28 23:55:00,
2013-01-28 17:00:00,51.4,29.6,29.78,West,281,6.0,9.0,43,0.00,,,0.01,Wunderground v.1.15,2013-01-29 00:00:00,
2013-01-28 17:05:00,49.9,29.9,29.78,West,260,5.0,11.0,46,0.00,,,0.01,Wunderground v.1.15,2013-01-29 00:05:00,
2013-01-28 17:10:00,48.8,31.0,29.78,WSW,238,5.0,5.0,50,0.00,,,0.01,Wunderground v.1.15,2013-01-29 00:10:00,
2013-01-28 17:15:00,48.1,30.3,29.78,WNW,293,4.0,5.0,50,0.00,,,0.01,Wunderground v.1.15,2013-01-29 00:15:00,
2013-01-28 17:20:00,47.7,30.4,29.78,West,279,4.0,4.0,51,0.00,,,0.01,Wunderground v.1.15,2013-01-29 00:20:00,
2013-01-28 17:25:00,47.4,30.6,29.78,West,271,4.0,4.0,52,0.00,,,0.01,Wunderground v.1.15,2013-01-29 00:25:00,
2013-01-28 17:30:00,47.2,30.5,29.78,WNW,293,3.0,4.0,52,0.00,,,0.01,Wunderground v.1.15,2013-01-29 00:30:00,
2013-01-28 17:35:00,47.0,30.7,29.78,WNW,292,3.0,5.0,53,0.00,,,0.01,Wunderground v.1.15,2013-01-29 00:35:00,
2013-01-28 17:40:00,47.0,30.7,29.78,West,266,3.0,4.0,53,0.00,,,0.01,Wunderground v.1.15,2013-01-29 00:40:00,
2013-01-28 17:45:00,46.9,31.1,29.79,WNW,288,3.0,4.0,54,0.00,,,0.01,Wunderground v.1.15,2013-01-29 00:45:00,
2013-01-28 17:50:00,46.8,31.0,29.80,West,262,4.0,4.0,54,0.00,,,0.01,Wunderground v.1.15,2013-01-29 00:50:00,
2013-01-28 17:55:00,46.7,30.9,29.81,WNW,297,4.0,4.0,54,0.00,,,0.01,Wunderground v.1.15,2013-01-29 00:55:00,
2013-01-28 18:00:00,46.5,31.2,29.81,NNW,341,4.0,4.0,55,0.00,,,0.01,Wunderground v.1.15,2013-01-29 01:00:00,
2013-01-28 18:05:00,45.8,30.1,29.81,WNW,295,6.0,6.0,54,0.00,,,0.01,Wunderground v.1.15,2013-01-29 01:05:00,
2013-01-28 18:10:00,45.0,30.2,29.82,NW,323,6.0,6.0,56,0.00,,,0.01,Wunderground v.1.15,2013-01-29 01:10:00,
2013-01-28 18:20:00,43.9,30.5,29.82,WNW,291,5.0,5.0,59,0.00,,,0.01,Wunderground v.1.15,2013-01-29 01:20:00,
2013-01-28 18:25:00,43.6,30.2,29.82,NW,324,3.0,5.0,59,0.00,,,0.01,Wunderground v.1.15,2013-01-29 01:25:00,
2013-01-28 18:30:00,43.3,29.9,29.82,WNW,285,3.0,3.0,59,0.00,,,0.01,Wunderground v.1.15,2013-01-29 01:30:00,
2013-01-28 18:35:00,43.1,29.7,29.82,NW,304,3.0,3.0,59,0.00,,,0.01,Wunderground v.1.15,2013-01-29 01:35:00,
2013-01-28 18:40:00,42.8,29.9,29.82,WNW,286,3.0,4.0,60,0.00,,,0.01,Wunderground v.1.15,2013-01-29 01:40:00,
2013-01-28 18:45:00,42.7,29.8,29.82,West,261,2.0,4.0,60,0.00,,,0.01,Wunderground v.1.15,2013-01-29 01:45:00,
2013-01-28 18:50:00,42.5,29.6,29.82,NW,304,1.0,1.0,60,0.00,,,0.01,Wunderground v.1.15,2013-01-29 01:50:00,
2013-01-28 18:55:00,42.4,29.5,29.82,WNW,294,1.0,3.0,60,0.00,,,0.01,Wunderground v.1.15,2013-01-29 01:55:00,
2013-01-28 19:00:00,42.3,29.0,29.83,WNW,286,2.0,2.0,59,0.00,,,0.01,Wunderground v.1.15,2013-01-29 02:00:00,
2013-01-28 19:05:00,42.3,29.0,29.83,West,260,2.0,2.0,59,0.00,,,0.01,Wunderground v.1.15,2013-01-29 02:05:00,
2013-01-28 19:10:00,42.4,28.7,29.83,WNW,285,2.0,2.0,58,0.00,,,0.01,Wunderground v.1.15,2013-01-29 02:10:00,
2013-01-28 19:20:00,42.5,28.3,29.84,West,275,2.0,2.0,57,0.00,,,0.01,Wunderground v.1.15,2013-01-29 02:20:00,
2013-01-28 19:25:00,42.6,27.5,29.84,West,280,2.0,2.0,55,0.00,,,0.01,Wunderground v.1.15,2013-01-29 02:25:00,
2013-01-28 19:30:00,42.8,27.3,29.84,WNW,302,2.0,2.0,54,0.00,,,0.01,Wunderground v.1.15,2013-01-29 02:30:00,
2013-01-28 19:35:00,43.1,27.1,29.84,SSW,209,2.0,4.0,53,0.00,,,0.01,Wunderground v.1.15,2013-01-29 02:35:00,
2013-01-28 19:40:00,43.3,26.4,29.85,WNW,291,3.0,3.0,51,0.00,,,0.01,Wunderground v.1.15,2013-01-29 02:40:00,
2013-01-28 19:45:00,43.4,26.0,29.85,West,268,4.0,5.0,50,0.00,,,0.01,Wunderground v.1.15,2013-01-29 02:45:00,
2013-01-28 19:50:00,43.5,25.6,29.85,SSW,197,3.0,3.0,49,0.00,,,0.01,Wunderground v.1.15,2013-01-29 02:50:00,
2013-01-28 19:55:00,43.4,25.5,29.85,West,260,2.0,3.0,49,0.00,,,0.01,Wunderground v.1.15,2013-01-29 02:55:00,
2013-01-28 20:00:00,43.5,24.6,29.85,West,261,3.0,3.0,47,0.00,,,0.01,Wunderground v.1.15,2013-01-29 03:00:00,
2013-01-28 20:05:00,43.5,24.6,29.85,WNW,297,3.0,3.0,47,0.00,,,0.01,Wunderground v.1.15,2013-01-29 03:05:00,
2013-01-28 20:10:00,43.5,24.6,29.85,WSW,242,3.0,3.0,47,0.00,,,0.01,Wunderground v.1.15,2013-01-29 03:10:00,
2013-01-28 20:20:00,43.2,24.3,29.85,NW,308,2.0,2.0,47,0.00,,,0.01,Wunderground v.1.15,2013-01-29 03:20:00,
2013-01-28 20:25:00,43.1,24.2,29.85,WNW,290,2.0,2.0,47,0.00,,,0.01,Wunderground v.1.15,2013-01-29 03:25:00,
2013-01-28 20:30:00,42.9,24.5,29.85,WNW,284,2.0,5.0,48,0.00,,,0.01,Wunderground v.1.15,2013-01-29 03:30:00,
2013-01-28 20:35:00,42.8,23.4,29.84,WNW,284,3.0,5.0,46,0.00,,,0.01,Wunderground v.1.15,2013-01-29 03:35:00,
2013-01-28 20:40:00,42.7,23.3,29.85,NW,306,5.0,7.0,46,0.00,,,0.01,Wunderground v.1.15,2013-01-29 03:40:00,
2013-01-28 20:45:00,42.6,23.8,29.85,West,275,4.0,7.0,47,0.00,,,0.01,Wunderground v.1.15,2013-01-29 03:45:00,
2013-01-28 20:50:00,42.4,23.1,29.85,WNW,283,2.0,2.0,46,0.00,,,0.01,Wunderground v.1.15,2013-01-29 03:50:00,
2013-01-28 21:00:00,42.2,22.4,29.85,WNW,291,3.0,3.0,45,0.00,,,0.01,Wunderground v.1.15,2013-01-29 04:00:00,
2013-01-28 21:05:00,42.1,22.3,29.86,WNW,283,3.0,3.0,45,0.00,,,0.01,Wunderground v.1.15,2013-01-29 04:05:00,
2013-01-28 21:10:00,42.0,22.2,29.85,West,280,3.0,3.0,45,0.00,,,0.01,Wunderground v.1.15,2013-01-29 04:10:00,
2013-01-28 21:15:00,41.9,22.6,29.85,WNW,294,3.0,7.0,46,0.00,,,0.01,Wunderground v.1.15,2013-01-29 04:15:00,
2013-01-28 21:20:00,41.8,22.5,29.86,West,269,3.0,3.0,46,0.00,,,0.01,Wunderground v.1.15,2013-01-29 04:20:00,
2013-01-28 21:25:00,41.6,22.8,29.86,SE,146,3.0,3.0,47,0.00,,,0.01,Wunderground v.1.15,2013-01-29 04:25:00,
2013-01-28 21:35:00,41.1,22.9,29.86,WNW,284,4.0,7.0,48,0.00,,,0.01,Wunderground v.1.15,2013-01-29 04:35:00,
2013-01-28 21:40:00,41.0,23.3,29.86,WNW,303,3.0,3.0,49,0.00,,,0.01,Wunderground v.1.15,2013-01-29 04:40:00,
2013-01-28 21:45:00,40.8,23.1,29.87,West,278,3.0,3.0,49,0.00,,,0.01,Wunderground v.1.15,2013-01-29 04:45:00,
2013-01-28 21:50:00,40.7,23.0,29.86,West,279,2.0,3.0,49,0.00,,,0.01,Wunderground v.1.15,2013-01-29 04:50:00,
2013-01-28 21:55:00,40.6,23.4,29.86,NW,323,2.0,3.0,50,0.00,,,0.01,Wunderground v.1.15,2013-01-29 04:55:00,
2013-01-28 22:00:00,40.6,22.9,29.87,NW,310,3.0,3.0,49,0.00,,,0.01,Wunderground v.1.15,2013-01-29 05:00:00,
2013-01-28 22:05:00,40.5,22.8,29.87,WNW,283,3.0,4.0,49,0.00,,,0.01,Wunderground v.1.15,2013-01-29 05:05:00,
2013-01-28 22:10:00,40.5,22.3,29.87,NNW,332,2.0,4.0,48,0.00,,,0.01,Wunderground v.1.15,2013-01-29 05:10:00,
2013-01-28 22:15:00,40.4,21.2,29.87,West,280,3.0,4.0,46,0.00,,,0.01,Wunderground v.1.15,2013-01-29 05:15:00,
2013-01-28 22:20:00,40.2,20.5,29.87,WNW,285,5.0,5.0,45,0.00,,,0.01,Wunderground v.1.15,2013-01-29 05:20:00,
2013-01-28 22:25:00,40.0,20.3,29.87,WNW,288,4.0,5.0,45,0.00,,,0.01,Wunderground v.1.15,2013-01-29 05:25:00,
2013-01-28 22:30:00,39.8,20.7,29.87,WNW,301,3.0,4.0,46,0.00,,,0.01,Wunderground v.1.15,2013-01-29 05:30:00,
2013-01-28 22:35:00,39.6,20.0,29.87,West,275,4.0,4.0,45,0.00,,,0.01,Wunderground v.1.15,2013-01-29 05:35:00,
2013-01-28 22:40:00,39.5,19.9,29.87,WSW,252,4.0,4.0,45,0.00,,,0.01,Wunderground v.1.15,2013-01-29 05:40:00,
2013-01-28 22:45:00,39.3,19.7,29.88,WNW,284,3.0,4.0,45,0.00,,,0.01,Wunderground v.1.15,2013-01-29 05:45:00,
2013-01-28 22:55:00,39.0,18.9,29.87,WNW,300,3.0,3.0,44,0.00,,,0.01,Wunderground v.1.15,2013-01-29 05:55:00,
2013-01-28 23:00:00,38.9,18.3,29.87,WSW,243,3.0,3.0,43,0.00,,,0.01,Wunderground v.1.15,2013-01-29 06:00:00,
2013-01-28 23:10:00,38.5,16.8,29.87,WNW,291,3.0,3.0,41,0.00,,,0.01,Wunderground v.1.15,2013-01-29 06:10:00,
2013-01-28 23:15:00,38.3,17.2,29.87,WNW,292,2.0,3.0,42,0.00,,,0.01,Wunderground v.1.15,2013-01-29 06:15:00,
2013-01-28 23:20:00,38.2,17.1,29.87,SSW,212,1.0,1.0,42,0.00,,,0.01,Wunderground v.1.15,2013-01-29 06:20:00,
2013-01-28 23:25:00,38.1,17.5,29.87,SW,222,1.0,1.0,43,0.00,,,0.01,Wunderground v.1.15,2013-01-29 06:25:00,
2013-01-28 23:30:00,38.0,18.0,29.87,SW,232,1.0,1.0,44,0.00,,,0.01,Wunderground v.1.15,2013-01-29 06:30:00,
2013-01-28 23:35:00,38.0,18.0,29.87,SW,229,1.0,4.0,44,0.00,,,0.01,Wunderground v.1.15,2013-01-29 06:35:00,
2013-01-28 23:40:00,37.9,18.4,29.87,SW,214,1.0,10.0,45,0.00,,,0.01,Wunderground v.1.15,2013-01-29 06:40:00,
2013-01-28 23:45:00,37.8,17.3,29.88,SW,223,3.0,10.0,43,0.00,,,0.01,Wunderground v.1.15,2013-01-29 06:45:00,
2013-01-28 23:50:00,37.8,16.7,29.88,SW,225,3.0,5.0,42,0.00,,,0.01,Wunderground v.1.15,2013-01-29 06:50:00,
2013-01-28 23:55:00,37.6,16.5,29.88,WSW,238,2.0,5.0,42,0.00,,,0.01,Wunderground v.1.15,2013-01-29 06:55:00,